Portsmouth International at Pease Airport Portsmouth US
ICAO: KPSM
IATA: PSM
Category: Medium
Scheduled Services: Yes

Elevation: 100 ft
TransAlt. 18000 ft.

Airport Communications:
BOSTON APP:125.05
ATIS:132.05
CLNC DEL:33.58
DEP:125.05
GCA:127.05
GND:120.95
ARW ANG OPS:134.1
TWR:128.4
UNICOM:122.95

KPSM Zoom In..

Runways:

(A) RW 16 length 11321 ft width 150 ft
ILS 110.10 / hdg 165

(B) RW 34 length 11321 ft width 150 ft
ILS 110.10 / hdg 345

Location; KPSM
Day. 11 / Time. 08.56 Zulu
* Altimeter: 29.91
* Temperature: 22° c. 71.6°f.
* Wind from: 250° Speed 04 kn.
Dewpoint: 20° c.
Visibility: 10 Statute Miles.
Clouds: Clear (automated report).

KPSM 110856Z AUTO 25004KT 10SM CLR 22/20 A2991 RMK AO2 SLP130 T02230196 55002

Going to: --> -->


Wind From 250°
Speed 04 kn.

 
 
jpsmedia worldairports.se 2020   terms of use